sensor_id;sensor_type;location;lat;lon;timestamp;P1;durP1;ratioP1;P2;durP2;ratioP2
8656;SDS011;4366;50.764;7.184;2023-04-25T00:01:15;2.17;;;1.97;;
8656;SDS011;4366;50.764;7.184;2023-04-25T00:06:16;2.20;;;2.10;;
8656;SDS011;4366;50.764;7.184;2023-04-25T00:11:19;2.20;;;2.07;;
8656;SDS011;4366;50.764;7.184;2023-04-25T00:16:20;4.27;;;2.30;;
8656;SDS011;4366;50.764;7.184;2023-04-25T00:21:22;2.00;;;1.90;;
8656;SDS011;4366;50.764;7.184;2023-04-25T00:26:25;2.00;;;1.90;;
8656;SDS011;4366;50.764;7.184;2023-04-25T00:31:27;3.10;;;1.97;;
8656;SDS011;4366;50.764;7.184;2023-04-25T00:36:30;6.00;;;2.03;;
8656;SDS011;4366;50.764;7.184;2023-04-25T00:41:31;2.63;;;2.17;;
8656;SDS011;4366;50.764;7.184;2023-04-25T00:46:34;2.13;;;2.03;;
8656;SDS011;4366;50.764;7.184;2023-04-25T00:51:37;3.80;;;2.20;;
8656;SDS011;4366;50.764;7.184;2023-04-25T00:56:39;2.73;;;2.20;;
8656;SDS011;4366;50.764;7.184;2023-04-25T01:01:41;4.20;;;2.30;;
8656;SDS011;4366;50.764;7.184;2023-04-25T01:06:42;2.30;;;2.10;;
8656;SDS011;4366;50.764;7.184;2023-04-25T01:11:44;2.90;;;2.20;;
8656;SDS011;4366;50.764;7.184;2023-04-25T01:16:46;2.77;;;2.03;;
8656;SDS011;4366;50.764;7.184;2023-04-25T01:21:48;2.30;;;2.10;;
8656;SDS011;4366;50.764;7.184;2023-04-25T01:26:49;2.10;;;2.00;;
8656;SDS011;4366;50.764;7.184;2023-04-25T01:31:57;2.23;;;2.13;;
8656;SDS011;4366;50.764;7.184;2023-04-25T01:37:00;2.20;;;2.10;;
8656;SDS011;4366;50.764;7.184;2023-04-25T01:42:03;2.40;;;2.20;;
8656;SDS011;4366;50.764;7.184;2023-04-25T01:47:05;3.27;;;2.20;;
8656;SDS011;4366;50.764;7.184;2023-04-25T01:52:06;2.60;;;2.40;;
8656;SDS011;4366;50.764;7.184;2023-04-25T01:57:08;2.30;;;2.10;;
8656;SDS011;4366;50.764;7.184;2023-04-25T02:02:12;2.50;;;2.30;;
8656;SDS011;4366;50.764;7.184;2023-04-25T02:07:14;2.80;;;2.60;;
8656;SDS011;4366;50.764;7.184;2023-04-25T02:12:25;4.30;;;2.60;;
8656;SDS011;4366;50.764;7.184;2023-04-25T02:17:39;2.80;;;2.50;;
8656;SDS011;4366;50.764;7.184;2023-04-25T02:22:41;3.67;;;2.43;;
8656;SDS011;4366;50.764;7.184;2023-04-25T02:27:43;5.60;;;3.10;;
8656;SDS011;4366;50.764;7.184;2023-04-25T02:32:45;3.30;;;2.37;;
8656;SDS011;4366;50.764;7.184;2023-04-25T02:37:47;5.23;;;2.73;;
8656;SDS011;4366;50.764;7.184;2023-04-25T02:42:49;3.90;;;2.70;;
8656;SDS011;4366;50.764;7.184;2023-04-25T02:47:52;4.00;;;2.60;;
8656;SDS011;4366;50.764;7.184;2023-04-25T02:52:55;2.87;;;2.57;;
8656;SDS011;4366;50.764;7.184;2023-04-25T02:58:02;2.50;;;2.30;;
8656;SDS011;4366;50.764;7.184;2023-04-25T03:03:18;4.03;;;3.33;;
8656;SDS011;4366;50.764;7.184;2023-04-25T03:08:24;3.87;;;2.70;;
8656;SDS011;4366;50.764;7.184;2023-04-25T03:13:27;2.73;;;2.50;;
8656;SDS011;4366;50.764;7.184;2023-04-25T03:18:31;4.80;;;2.73;;
8656;SDS011;4366;50.764;7.184;2023-04-25T03:23:33;3.50;;;2.40;;
8656;SDS011;4366;50.764;7.184;2023-04-25T03:28:35;2.80;;;2.40;;
8656;SDS011;4366;50.764;7.184;2023-04-25T03:33:37;4.37;;;2.53;;
8656;SDS011;4366;50.764;7.184;2023-04-25T03:38:39;2.77;;;1.90;;
8656;SDS011;4366;50.764;7.184;2023-04-25T03:43:43;2.90;;;2.70;;
8656;SDS011;4366;50.764;7.184;2023-04-25T03:48:47;3.13;;;2.80;;
8656;SDS011;4366;50.764;7.184;2023-04-25T03:53:55;3.73;;;2.50;;
8656;SDS011;4366;50.764;7.184;2023-04-25T03:59:20;3.27;;;2.67;;
8656;SDS011;4366;50.764;7.184;2023-04-25T04:04:22;2.77;;;2.43;;
8656;SDS011;4366;50.764;7.184;2023-04-25T04:09:24;2.80;;;2.60;;
8656;SDS011;4366;50.764;7.184;2023-04-25T04:14:28;2.80;;;2.60;;
8656;SDS011;4366;50.764;7.184;2023-04-25T04:19:29;2.60;;;2.40;;
8656;SDS011;4366;50.764;7.184;2023-04-25T04:24:51;3.60;;;2.60;;
8656;SDS011;4366;50.764;7.184;2023-04-25T04:30:01;2.90;;;2.60;;
8656;SDS011;4366;50.764;7.184;2023-04-25T04:35:08;4.67;;;2.63;;
8656;SDS011;4366;50.764;7.184;2023-04-25T04:40:10;2.87;;;2.60;;
8656;SDS011;4366;50.764;7.184;2023-04-25T04:45:35;2.60;;;2.40;;
8656;SDS011;4366;50.764;7.184;2023-04-25T04:50:55;2.23;;;2.07;;
8656;SDS011;4366;50.764;7.184;2023-04-25T04:56:16;3.00;;;2.60;;
8656;SDS011;4366;50.764;7.184;2023-04-25T05:01:26;2.40;;;2.20;;
8656;SDS011;4366;50.764;7.184;2023-04-25T05:06:51;2.83;;;2.63;;
8656;SDS011;4366;50.764;7.184;2023-04-25T05:12:04;3.73;;;2.80;;
8656;SDS011;4366;50.764;7.184;2023-04-25T05:17:33;3.23;;;2.90;;
8656;SDS011;4366;50.764;7.184;2023-04-25T05:22:55;2.57;;;2.33;;
8656;SDS011;4366;50.764;7.184;2023-04-25T05:28:23;2.80;;;2.60;;
8656;SDS011;4366;50.764;7.184;2023-04-25T05:33:44;6.03;;;3.13;;
8656;SDS011;4366;50.764;7.184;2023-04-25T05:38:46;4.20;;;2.70;;
8656;SDS011;4366;50.764;7.184;2023-04-25T05:43:48;3.87;;;2.87;;
8656;SDS011;4366;50.764;7.184;2023-04-25T05:49:09;2.50;;;2.30;;
8656;SDS011;4366;50.764;7.184;2023-04-25T05:54:29;2.80;;;2.60;;
8656;SDS011;4366;50.764;7.184;2023-04-25T05:59:31;3.50;;;2.60;;
8656;SDS011;4366;50.764;7.184;2023-04-25T06:04:33;3.63;;;2.60;;
8656;SDS011;4366;50.764;7.184;2023-04-25T06:09:35;2.27;;;2.17;;
8656;SDS011;4366;50.764;7.184;2023-04-25T06:14:37;2.30;;;2.20;;
8656;SDS011;4366;50.764;7.184;2023-04-25T06:19:39;4.60;;;2.27;;
8656;SDS011;4366;50.764;7.184;2023-04-25T06:24:42;2.40;;;2.20;;
8656;SDS011;4366;50.764;7.184;2023-04-25T06:29:44;2.97;;;2.23;;
8656;SDS011;4366;50.764;7.184;2023-04-25T06:34:46;2.73;;;2.20;;
8656;SDS011;4366;50.764;7.184;2023-04-25T06:39:48;7.17;;;2.60;;
8656;SDS011;4366;50.764;7.184;2023-04-25T06:44:49;4.30;;;2.50;;
8656;SDS011;4366;50.764;7.184;2023-04-25T06:49:53;3.57;;;2.83;;
8656;SDS011;4366;50.764;7.184;2023-04-25T06:54:55;2.87;;;2.30;;
8656;SDS011;4366;50.764;7.184;2023-04-25T07:00:23;3.53;;;2.00;;
8656;SDS011;4366;50.764;7.184;2023-04-25T07:05:24;3.00;;;2.23;;
8656;SDS011;4366;50.764;7.184;2023-04-25T07:10:26;4.27;;;2.23;;
8656;SDS011;4366;50.764;7.184;2023-04-25T07:15:28;6.00;;;2.13;;
8656;SDS011;4366;50.764;7.184;2023-04-25T07:20:31;5.03;;;2.20;;
8656;SDS011;4366;50.764;7.184;2023-04-25T07:25:36;2.30;;;1.90;;
8656;SDS011;4366;50.764;7.184;2023-04-25T07:30:39;3.60;;;1.70;;
8656;SDS011;4366;50.764;7.184;2023-04-25T07:35:41;3.17;;;1.80;;
8656;SDS011;4366;50.764;7.184;2023-04-25T07:40:44;2.50;;;1.80;;
8656;SDS011;4366;50.764;7.184;2023-04-25T07:45:46;1.60;;;1.60;;
8656;SDS011;4366;50.764;7.184;2023-04-25T07:50:50;2.10;;;1.93;;
8656;SDS011;4366;50.764;7.184;2023-04-25T07:55:53;2.10;;;1.60;;
8656;SDS011;4366;50.764;7.184;2023-04-25T08:00:56;2.80;;;2.03;;
8656;SDS011;4366;50.764;7.184;2023-04-25T08:06:12;4.10;;;1.97;;
8656;SDS011;4366;50.764;7.184;2023-04-25T08:11:23;1.90;;;1.80;;
8656;SDS011;4366;50.764;7.184;2023-04-25T08:16:25;3.23;;;1.60;;
8656;SDS011;4366;50.764;7.184;2023-04-25T08:21:27;1.53;;;1.43;;
8656;SDS011;4366;50.764;7.184;2023-04-25T08:26:32;4.23;;;1.87;;
8656;SDS011;4366;50.764;7.184;2023-04-25T08:31:36;2.33;;;2.13;;
8656;SDS011;4366;50.764;7.184;2023-04-25T08:36:39;2.30;;;2.10;;
8656;SDS011;4366;50.764;7.184;2023-04-25T08:41:58;3.53;;;2.20;;
8656;SDS011;4366;50.764;7.184;2023-04-25T08:47:02;3.63;;;2.43;;
8656;SDS011;4366;50.764;7.184;2023-04-25T08:52:14;1.73;;;1.63;;
8656;SDS011;4366;50.764;7.184;2023-04-25T08:57:17;2.80;;;1.70;;
8656;SDS011;4366;50.764;7.184;2023-04-25T09:02:21;1.93;;;1.70;;
8656;SDS011;4366;50.764;7.184;2023-04-25T09:07:25;1.50;;;1.40;;
8656;SDS011;4366;50.764;7.184;2023-04-25T09:12:28;2.87;;;1.50;;
8656;SDS011;4366;50.764;7.184;2023-04-25T09:17:31;1.83;;;1.50;;
8656;SDS011;4366;50.764;7.184;2023-04-25T09:22:34;1.60;;;1.50;;
8656;SDS011;4366;50.764;7.184;2023-04-25T09:27:36;1.13;;;1.10;;
8656;SDS011;4366;50.764;7.184;2023-04-25T09:33:08;1.10;;;1.10;;
8656;SDS011;4366;50.764;7.184;2023-04-25T09:38:13;1.37;;;1.33;;
8656;SDS011;4366;50.764;7.184;2023-04-25T09:43:26;1.23;;;1.23;;
8656;SDS011;4366;50.764;7.184;2023-04-25T09:48:28;1.80;;;1.70;;
8656;SDS011;4366;50.764;7.184;2023-04-25T09:53:34;1.50;;;1.40;;
8656;SDS011;4366;50.764;7.184;2023-04-25T09:58:47;1.67;;;1.57;;
8656;SDS011;4366;50.764;7.184;2023-04-25T10:03:51;2.27;;;1.30;;
8656;SDS011;4366;50.764;7.184;2023-04-25T10:09:25;1.80;;;1.70;;
8656;SDS011;4366;50.764;7.184;2023-04-25T10:14:31;2.20;;;1.70;;
8656;SDS011;4366;50.764;7.184;2023-04-25T10:19:34;3.80;;;1.70;;
8656;SDS011;4366;50.764;7.184;2023-04-25T10:24:36;1.27;;;1.27;;
8656;SDS011;4366;50.764;7.184;2023-04-25T10:29:38;1.90;;;1.80;;
8656;SDS011;4366;50.764;7.184;2023-04-25T10:34:43;2.43;;;1.33;;
8656;SDS011;4366;50.764;7.184;2023-04-25T10:39:48;1.23;;;1.23;;
8656;SDS011;4366;50.764;7.184;2023-04-25T10:45:04;1.33;;;1.20;;
8656;SDS011;4366;50.764;7.184;2023-04-25T10:50:09;2.87;;;1.37;;
8656;SDS011;4366;50.764;7.184;2023-04-25T10:55:11;1.50;;;1.40;;
8656;SDS011;4366;50.764;7.184;2023-04-25T11:00:14;3.40;;;1.47;;
8656;SDS011;4366;50.764;7.184;2023-04-25T11:05:19;1.60;;;1.50;;
8656;SDS011;4366;50.764;7.184;2023-04-25T11:10:27;1.10;;;1.10;;
8656;SDS011;4366;50.764;7.184;2023-04-25T11:15:30;1.63;;;1.53;;
8656;SDS011;4366;50.764;7.184;2023-04-25T11:20:32;1.40;;;1.30;;
8656;SDS011;4366;50.764;7.184;2023-04-25T11:25:33;3.47;;;1.70;;
8656;SDS011;4366;50.764;7.184;2023-04-25T11:30:39;2.63;;;1.40;;
8656;SDS011;4366;50.764;7.184;2023-04-25T11:35:41;1.80;;;1.63;;
8656;SDS011;4366;50.764;7.184;2023-04-25T11:40:42;1.87;;;1.77;;
8656;SDS011;4366;50.764;7.184;2023-04-25T11:45:46;1.27;;;1.27;;
8656;SDS011;4366;50.764;7.184;2023-04-25T11:50:49;1.33;;;1.30;;
8656;SDS011;4366;50.764;7.184;2023-04-25T11:55:51;1.30;;;1.30;;
8656;SDS011;4366;50.764;7.184;2023-04-25T12:00:52;2.30;;;1.80;;
8656;SDS011;4366;50.764;7.184;2023-04-25T12:05:54;1.93;;;1.40;;
8656;SDS011;4366;50.764;7.184;2023-04-25T12:11:05;1.17;;;1.10;;
8656;SDS011;4366;50.764;7.184;2023-04-25T12:16:07;3.37;;;1.27;;
8656;SDS011;4366;50.764;7.184;2023-04-25T12:21:09;1.07;;;1.07;;
8656;SDS011;4366;50.764;7.184;2023-04-25T12:26:11;2.80;;;1.20;;
8656;SDS011;4366;50.764;7.184;2023-04-25T12:31:12;1.43;;;1.30;;
8656;SDS011;4366;50.764;7.184;2023-04-25T12:36:16;1.23;;;1.17;;
8656;SDS011;4366;50.764;7.184;2023-04-25T12:41:18;1.40;;;1.30;;
8656;SDS011;4366;50.764;7.184;2023-04-25T12:46:20;1.00;;;1.00;;
8656;SDS011;4366;50.764;7.184;2023-04-25T12:51:21;1.10;;;1.10;;
8656;SDS011;4366;50.764;7.184;2023-04-25T12:56:26;1.00;;;1.00;;
8656;SDS011;4366;50.764;7.184;2023-04-25T13:01:29;3.13;;;1.10;;
8656;SDS011;4366;50.764;7.184;2023-04-25T13:06:31;1.33;;;1.23;;
8656;SDS011;4366;50.764;7.184;2023-04-25T13:11:34;1.13;;;1.13;;
8656;SDS011;4366;50.764;7.184;2023-04-25T13:16:37;2.70;;;1.17;;
8656;SDS011;4366;50.764;7.184;2023-04-25T13:21:39;1.33;;;1.23;;
8656;SDS011;4366;50.764;7.184;2023-04-25T13:26:41;2.70;;;0.90;;
8656;SDS011;4366;50.764;7.184;2023-04-25T13:31:43;1.00;;;1.00;;
8656;SDS011;4366;50.764;7.184;2023-04-25T13:36:45;1.40;;;1.30;;
8656;SDS011;4366;50.764;7.184;2023-04-25T13:41:46;1.30;;;1.00;;
8656;SDS011;4366;50.764;7.184;2023-04-25T13:46:49;0.97;;;0.90;;
8656;SDS011;4366;50.764;7.184;2023-04-25T13:51:50;2.13;;;1.10;;
8656;SDS011;4366;50.764;7.184;2023-04-25T13:56:52;1.03;;;1.03;;
8656;SDS011;4366;50.764;7.184;2023-04-25T14:01:56;2.00;;;1.23;;
8656;SDS011;4366;50.764;7.184;2023-04-25T14:06:58;1.73;;;1.40;;
8656;SDS011;4366;50.764;7.184;2023-04-25T14:12:00;1.33;;;1.30;;
8656;SDS011;4366;50.764;7.184;2023-04-25T14:17:01;1.47;;;1.40;;
8656;SDS011;4366;50.764;7.184;2023-04-25T14:22:03;2.20;;;1.33;;
8656;SDS011;4366;50.764;7.184;2023-04-25T14:27:05;1.37;;;1.27;;
8656;SDS011;4366;50.764;7.184;2023-04-25T14:32:07;1.30;;;1.20;;
8656;SDS011;4366;50.764;7.184;2023-04-25T14:37:08;2.20;;;1.30;;
8656;SDS011;4366;50.764;7.184;2023-04-25T14:42:11;1.80;;;1.17;;
8656;SDS011;4366;50.764;7.184;2023-04-25T14:47:12;1.23;;;1.23;;
8656;SDS011;4366;50.764;7.184;2023-04-25T14:52:14;1.30;;;1.20;;
8656;SDS011;4366;50.764;7.184;2023-04-25T14:57:16;1.07;;;1.07;;
8656;SDS011;4366;50.764;7.184;2023-04-25T15:02:18;1.63;;;0.90;;
8656;SDS011;4366;50.764;7.184;2023-04-25T15:07:19;1.83;;;1.00;;
8656;SDS011;4366;50.764;7.184;2023-04-25T15:12:21;1.80;;;1.10;;
8656;SDS011;4366;50.764;7.184;2023-04-25T15:17:23;1.40;;;1.07;;
8656;SDS011;4366;50.764;7.184;2023-04-25T15:22:24;0.90;;;0.90;;
8656;SDS011;4366;50.764;7.184;2023-04-25T15:27:26;0.80;;;0.80;;
8656;SDS011;4366;50.764;7.184;2023-04-25T15:32:28;0.80;;;0.80;;
8656;SDS011;4366;50.764;7.184;2023-04-25T15:37:30;0.87;;;0.87;;
8656;SDS011;4366;50.764;7.184;2023-04-25T15:42:32;0.97;;;0.97;;
8656;SDS011;4366;50.764;7.184;2023-04-25T15:47:34;0.80;;;0.80;;
8656;SDS011;4366;50.764;7.184;2023-04-25T15:52:36;0.80;;;0.80;;
8656;SDS011;4366;50.764;7.184;2023-04-25T15:57:38;0.80;;;0.80;;
8656;SDS011;4366;50.764;7.184;2023-04-25T16:02:42;1.10;;;1.10;;
8656;SDS011;4366;50.764;7.184;2023-04-25T16:07:45;1.00;;;1.00;;
8656;SDS011;4366;50.764;7.184;2023-04-25T16:12:48;1.00;;;1.00;;
8656;SDS011;4366;50.764;7.184;2023-04-25T16:17:50;0.87;;;0.87;;
8656;SDS011;4366;50.764;7.184;2023-04-25T16:22:52;1.03;;;1.03;;
8656;SDS011;4366;50.764;7.184;2023-04-25T16:27:54;1.20;;;1.10;;
8656;SDS011;4366;50.764;7.184;2023-04-25T16:32:56;0.90;;;0.90;;
8656;SDS011;4366;50.764;7.184;2023-04-25T16:37:58;0.97;;;0.97;;
8656;SDS011;4366;50.764;7.184;2023-04-25T16:43:00;1.10;;;1.10;;
8656;SDS011;4366;50.764;7.184;2023-04-25T16:48:02;1.93;;;1.10;;
8656;SDS011;4366;50.764;7.184;2023-04-25T16:53:04;1.00;;;1.00;;
8656;SDS011;4366;50.764;7.184;2023-04-25T16:58:05;0.77;;;0.77;;
8656;SDS011;4366;50.764;7.184;2023-04-25T17:03:10;1.07;;;1.07;;
8656;SDS011;4366;50.764;7.184;2023-04-25T17:08:12;0.90;;;0.90;;
8656;SDS011;4366;50.764;7.184;2023-04-25T17:13:14;1.37;;;1.20;;
8656;SDS011;4366;50.764;7.184;2023-04-25T17:18:16;0.93;;;0.93;;
8656;SDS011;4366;50.764;7.184;2023-04-25T17:23:18;1.33;;;1.23;;
8656;SDS011;4366;50.764;7.184;2023-04-25T17:28:19;1.00;;;1.00;;
8656;SDS011;4366;50.764;7.184;2023-04-25T17:33:21;1.07;;;1.07;;
8656;SDS011;4366;50.764;7.184;2023-04-25T17:38:27;1.20;;;1.10;;
8656;SDS011;4366;50.764;7.184;2023-04-25T17:43:29;3.17;;;2.40;;
8656;SDS011;4366;50.764;7.184;2023-04-25T17:48:31;1.20;;;1.20;;
8656;SDS011;4366;50.764;7.184;2023-04-25T17:53:33;2.37;;;2.17;;
8656;SDS011;4366;50.764;7.184;2023-04-25T17:58:35;1.70;;;1.60;;
8656;SDS011;4366;50.764;7.184;2023-04-25T18:03:37;1.23;;;1.23;;
8656;SDS011;4366;50.764;7.184;2023-04-25T18:08:40;1.80;;;1.30;;
8656;SDS011;4366;50.764;7.184;2023-04-25T18:13:43;1.13;;;1.13;;
8656;SDS011;4366;50.764;7.184;2023-04-25T18:18:45;1.83;;;1.67;;
8656;SDS011;4366;50.764;7.184;2023-04-25T18:23:54;1.03;;;1.03;;
8656;SDS011;4366;50.764;7.184;2023-04-25T18:28:56;1.67;;;1.40;;
8656;SDS011;4366;50.764;7.184;2023-04-25T18:33:57;1.23;;;1.10;;
8656;SDS011;4366;50.764;7.184;2023-04-25T18:38:59;1.10;;;1.10;;
8656;SDS011;4366;50.764;7.184;2023-04-25T18:44:03;1.33;;;1.23;;
8656;SDS011;4366;50.764;7.184;2023-04-25T18:49:05;1.50;;;1.40;;
8656;SDS011;4366;50.764;7.184;2023-04-25T18:54:07;3.00;;;1.80;;
8656;SDS011;4366;50.764;7.184;2023-04-25T18:59:11;2.10;;;1.30;;
8656;SDS011;4366;50.764;7.184;2023-04-25T19:04:14;1.20;;;1.20;;
8656;SDS011;4366;50.764;7.184;2023-04-25T19:09:16;1.27;;;1.20;;
8656;SDS011;4366;50.764;7.184;2023-04-25T19:14:18;1.50;;;1.40;;
8656;SDS011;4366;50.764;7.184;2023-04-25T19:19:21;1.37;;;1.37;;
8656;SDS011;4366;50.764;7.184;2023-04-25T19:24:23;1.60;;;1.50;;
8656;SDS011;4366;50.764;7.184;2023-04-25T19:29:25;1.73;;;1.20;;
8656;SDS011;4366;50.764;7.184;2023-04-25T19:34:28;1.57;;;1.50;;
8656;SDS011;4366;50.764;7.184;2023-04-25T19:39:29;1.43;;;1.43;;
8656;SDS011;4366;50.764;7.184;2023-04-25T19:44:32;2.30;;;1.70;;
8656;SDS011;4366;50.764;7.184;2023-04-25T19:49:33;1.63;;;1.53;;
8656;SDS011;4366;50.764;7.184;2023-04-25T19:54:35;1.67;;;1.67;;
8656;SDS011;4366;50.764;7.184;2023-04-25T19:59:37;1.93;;;1.83;;
8656;SDS011;4366;50.764;7.184;2023-04-25T20:04:40;3.07;;;1.80;;
8656;SDS011;4366;50.764;7.184;2023-04-25T20:09:42;1.90;;;1.80;;
8656;SDS011;4366;50.764;7.184;2023-04-25T20:14:44;1.63;;;1.60;;
8656;SDS011;4366;50.764;7.184;2023-04-25T20:19:45;2.00;;;1.50;;
8656;SDS011;4366;50.764;7.184;2023-04-25T20:24:47;1.50;;;1.50;;
8656;SDS011;4366;50.764;7.184;2023-04-25T20:29:49;1.60;;;1.60;;
8656;SDS011;4366;50.764;7.184;2023-04-25T20:34:51;1.90;;;1.80;;
8656;SDS011;4366;50.764;7.184;2023-04-25T20:39:53;1.47;;;1.47;;
8656;SDS011;4366;50.764;7.184;2023-04-25T20:44:54;1.50;;;1.50;;
8656;SDS011;4366;50.764;7.184;2023-04-25T20:49:56;2.40;;;1.60;;
8656;SDS011;4366;50.764;7.184;2023-04-25T20:54:59;2.70;;;1.90;;
8656;SDS011;4366;50.764;7.184;2023-04-25T21:00:02;1.80;;;1.60;;
8656;SDS011;4366;50.764;7.184;2023-04-25T21:05:05;1.77;;;1.67;;
8656;SDS011;4366;50.764;7.184;2023-04-25T21:10:07;2.40;;;2.23;;
8656;SDS011;4366;50.764;7.184;2023-04-25T21:15:09;1.53;;;1.53;;
8656;SDS011;4366;50.764;7.184;2023-04-25T21:20:13;1.80;;;1.70;;
8656;SDS011;4366;50.764;7.184;2023-04-25T21:25:19;1.73;;;1.63;;
8656;SDS011;4366;50.764;7.184;2023-04-25T21:30:25;2.70;;;1.90;;
8656;SDS011;4366;50.764;7.184;2023-04-25T21:35:27;1.70;;;1.60;;
8656;SDS011;4366;50.764;7.184;2023-04-25T21:40:28;1.63;;;1.63;;
8656;SDS011;4366;50.764;7.184;2023-04-25T21:45:30;2.20;;;2.10;;
8656;SDS011;4366;50.764;7.184;2023-04-25T21:50:32;1.43;;;1.40;;
8656;SDS011;4366;50.764;7.184;2023-04-25T21:55:33;2.43;;;1.70;;
8656;SDS011;4366;50.764;7.184;2023-04-25T22:00:35;2.10;;;1.90;;
8656;SDS011;4366;50.764;7.184;2023-04-25T22:05:38;1.90;;;1.80;;
8656;SDS011;4366;50.764;7.184;2023-04-25T22:10:39;1.70;;;1.70;;
8656;SDS011;4366;50.764;7.184;2023-04-25T22:15:42;2.50;;;2.00;;
8656;SDS011;4366;50.764;7.184;2023-04-25T22:20:44;3.10;;;2.03;;
8656;SDS011;4366;50.764;7.184;2023-04-25T22:25:46;2.90;;;2.00;;
8656;SDS011;4366;50.764;7.184;2023-04-25T22:30:48;2.00;;;1.90;;
8656;SDS011;4366;50.764;7.184;2023-04-25T22:35:50;2.20;;;2.10;;
8656;SDS011;4366;50.764;7.184;2023-04-25T22:40:52;2.40;;;2.30;;
8656;SDS011;4366;50.764;7.184;2023-04-25T22:45:54;2.20;;;2.10;;
8656;SDS011;4366;50.764;7.184;2023-04-25T22:51:00;2.33;;;2.20;;
8656;SDS011;4366;50.764;7.184;2023-04-25T22:56:03;2.17;;;2.07;;
8656;SDS011;4366;50.764;7.184;2023-04-25T23:01:05;2.20;;;2.10;;
8656;SDS011;4366;50.764;7.184;2023-04-25T23:06:09;2.13;;;2.03;;
8656;SDS011;4366;50.764;7.184;2023-04-25T23:11:12;3.03;;;2.10;;
8656;SDS011;4366;50.764;7.184;2023-04-25T23:16:14;3.57;;;1.87;;
8656;SDS011;4366;50.764;7.184;2023-04-25T23:21:16;3.13;;;2.00;;
8656;SDS011;4366;50.764;7.184;2023-04-25T23:26:18;2.80;;;2.07;;
8656;SDS011;4366;50.764;7.184;2023-04-25T23:31:21;2.27;;;2.10;;
8656;SDS011;4366;50.764;7.184;2023-04-25T23:36:23;2.27;;;2.10;;
8656;SDS011;4366;50.764;7.184;2023-04-25T23:41:25;2.00;;;1.90;;
8656;SDS011;4366;50.764;7.184;2023-04-25T23:46:27;2.17;;;2.07;;
8656;SDS011;4366;50.764;7.184;2023-04-25T23:51:29;2.20;;;2.00;;
8656;SDS011;4366;50.764;7.184;2023-04-25T23:56:32;5.83;;;2.20;;
